KMMV

Mc Minnville Municipal Airport

Mc Minnville, Oregon, USA
METAR KMMV 260253Z AUTO 30004KT 10SM FEW110 03/02 A2995 RMK AO2 SLP142 60000 T00330022 53001 $
Observed Flight Rules
Feb-26 @ 02:53 UTC (34 minutes ago) Visual Flight Rules
Wind Visibility Clouds
300° at 4 knots 10 miles
  • Few at 11,000' AGL
Temperatures Readings
Current 3°C / 37°F
Dewpoint 2°C / 36°F
Humidity 93%
Altimeter 29.95" Hg
Pressure 1014.2 hPa
Elevation 48
METAR KMMV 260253Z AUTO 30004KT 10SM FEW110 03/02 A2995 RMK AO2 SLP142 60000 T00330022 53001 $
Observed Flight Rules
Feb-26 @ 02:53 UTC
(34 minutes ago)
VFR
Wind Visibility
300° at 4 knots 10 miles
Clouds
  • Few at 11,000' AGL
Temperature Dewpoint
3°C / 37°F 2°C / 36°F
Humidity Altimeter Pressure
93% 29.95" Hg 1014.2 hPa